Capitol Logistics 994

Operating for DHL



EGNX
East Midlands Airport
Derby, GB
EGPE
Inverness Airport
Inverness, GB

Activity Log

Date Flight Route Aircraft Duration
03/14/2022 CPX994 TNT2N TNT N57 POL UN601 TLA FOYLE N560 NESDI GUSSI B738 1h 11m
01/10/2022 CPX994 EGNX/09 TNT2N TNT N57 POL UN601 TLA FOYLE N560 NESDI GUSSI EGPE/23 A30F 1h 11m

Route Details

Aircraft Information
Group: European Fleet
Types: A30F,A31F,B738
Route Data
Demand: M
Distance: 298nm
Duration: 1h 30m
Recm'd Route: TNT2N TNT N57 POL UN601 TLA FOYLE N560 NESDI GUSSI
Origin Wx: EGNX 270450Z 25011KT CAVOK 09/04 Q1023
Dest. Wx: EGPE 270450Z 23015KT 9999 SCT045 08/06 Q1013
Notes:

Financial History
Total Freight: 114,478lbs
Average Load: 57,239lbs/flt
Fuel Used: 20,446lbs
Avg. Fuel Used: 10,223lbs/flt
Fuel Expense: $8,931
Avg. Fuel Expense: $4,465
Avg. Fuel Cost: $0.45/lbs
Total Gross Income: $246,015
Pilot Pay: $518
Total Expenses: $30,866
Total Revenue: $205,643
Average Revenue: $123,007.34